sensor_id;sensor_type;location;lat;lon;timestamp;temperature;humidity
30300;DHT22;17110;52.602;12.998;2023-07-30T00:01:54;16.80;99.90
30300;DHT22;17110;52.602;12.998;2023-07-30T00:04:20;16.80;99.90
30300;DHT22;17110;52.602;12.998;2023-07-30T00:06:47;16.70;99.90
30300;DHT22;17110;52.602;12.998;2023-07-30T00:09:13;16.70;99.90
30300;DHT22;17110;52.602;12.998;2023-07-30T00:11:38;16.70;99.90
30300;DHT22;17110;52.602;12.998;2023-07-30T00:14:04;16.60;99.90
30300;DHT22;17110;52.602;12.998;2023-07-30T00:16:30;16.60;99.90
30300;DHT22;17110;52.602;12.998;2023-07-30T00:18:56;16.60;99.90
30300;DHT22;17110;52.602;12.998;2023-07-30T00:21:21;16.60;99.90
30300;DHT22;17110;52.602;12.998;2023-07-30T00:23:48;16.50;99.90
30300;DHT22;17110;52.602;12.998;2023-07-30T00:26:14;16.50;99.90
30300;DHT22;17110;52.602;12.998;2023-07-30T00:28:40;16.40;99.90
30300;DHT22;17110;52.602;12.998;2023-07-30T00:31:06;16.40;99.90
30300;DHT22;17110;52.602;12.998;2023-07-30T00:33:31;16.40;99.90
30300;DHT22;17110;52.602;12.998;2023-07-30T00:35:57;16.40;99.90
30300;DHT22;17110;52.602;12.998;2023-07-30T00:38:23;16.30;99.90
30300;DHT22;17110;52.602;12.998;2023-07-30T00:40:50;16.30;99.90
30300;DHT22;17110;52.602;12.998;2023-07-30T00:43:15;16.30;99.90
30300;DHT22;17110;52.602;12.998;2023-07-30T00:45:43;16.30;99.90
30300;DHT22;17110;52.602;12.998;2023-07-30T00:48:09;16.20;99.90
30300;DHT22;17110;52.602;12.998;2023-07-30T00:50:35;16.20;99.90
30300;DHT22;17110;52.602;12.998;2023-07-30T00:53:01;16.00;99.90
30300;DHT22;17110;52.602;12.998;2023-07-30T00:55:26;16.00;99.90
30300;DHT22;17110;52.602;12.998;2023-07-30T00:57:54;15.90;99.90
30300;DHT22;17110;52.602;12.998;2023-07-30T01:00:19;15.90;99.90
30300;DHT22;17110;52.602;12.998;2023-07-30T01:02:45;15.90;99.90
30300;DHT22;17110;52.602;12.998;2023-07-30T01:05:11;15.90;99.90
30300;DHT22;17110;52.602;12.998;2023-07-30T01:07:36;15.80;99.90
30300;DHT22;17110;52.602;12.998;2023-07-30T01:10:02;15.80;99.90
30300;DHT22;17110;52.602;12.998;2023-07-30T01:12:29;15.80;99.90
30300;DHT22;17110;52.602;12.998;2023-07-30T01:14:57;15.80;99.90
30300;DHT22;17110;52.602;12.998;2023-07-30T01:17:23;15.80;99.90
30300;DHT22;17110;52.602;12.998;2023-07-30T01:19:49;15.80;99.90
30300;DHT22;17110;52.602;12.998;2023-07-30T01:22:18;15.80;99.90
30300;DHT22;17110;52.602;12.998;2023-07-30T01:24:44;15.70;99.90
30300;DHT22;17110;52.602;12.998;2023-07-30T01:27:16;15.70;99.90
30300;DHT22;17110;52.602;12.998;2023-07-30T01:29:49;15.70;99.90
30300;DHT22;17110;52.602;12.998;2023-07-30T01:32:17;15.70;99.90
30300;DHT22;17110;52.602;12.998;2023-07-30T01:34:46;15.60;99.90
30300;DHT22;17110;52.602;12.998;2023-07-30T01:37:12;15.60;99.90
30300;DHT22;17110;52.602;12.998;2023-07-30T01:39:40;15.50;99.90
30300;DHT22;17110;52.602;12.998;2023-07-30T01:42:07;15.50;99.90
30300;DHT22;17110;52.602;12.998;2023-07-30T01:44:33;15.50;99.90
30300;DHT22;17110;52.602;12.998;2023-07-30T01:46:59;15.40;99.90
30300;DHT22;17110;52.602;12.998;2023-07-30T01:49:25;15.40;99.90
30300;DHT22;17110;52.602;12.998;2023-07-30T01:51:50;15.40;99.90
30300;DHT22;17110;52.602;12.998;2023-07-30T01:54:16;15.40;99.90
30300;DHT22;17110;52.602;12.998;2023-07-30T01:56:43;15.40;99.90
30300;DHT22;17110;52.602;12.998;2023-07-30T01:59:09;15.30;99.90
30300;DHT22;17110;52.602;12.998;2023-07-30T02:01:34;15.30;99.90
30300;DHT22;17110;52.602;12.998;2023-07-30T02:04:00;15.30;99.90
30300;DHT22;17110;52.602;12.998;2023-07-30T02:06:25;15.30;99.90
30300;DHT22;17110;52.602;12.998;2023-07-30T02:08:52;15.20;99.90
30300;DHT22;17110;52.602;12.998;2023-07-30T02:11:18;15.20;99.90
30300;DHT22;17110;52.602;12.998;2023-07-30T02:13:45;15.20;99.90
30300;DHT22;17110;52.602;12.998;2023-07-30T02:16:11;15.20;99.90
30300;DHT22;17110;52.602;12.998;2023-07-30T02:18:36;15.20;99.90
30300;DHT22;17110;52.602;12.998;2023-07-30T02:21:02;15.10;99.90
30300;DHT22;17110;52.602;12.998;2023-07-30T02:23:28;15.10;99.90
30300;DHT22;17110;52.602;12.998;2023-07-30T02:25:53;15.10;99.90
30300;DHT22;17110;52.602;12.998;2023-07-30T02:28:19;15.10;99.90
30300;DHT22;17110;52.602;12.998;2023-07-30T02:30:46;15.10;99.90
30300;DHT22;17110;52.602;12.998;2023-07-30T02:33:12;15.10;99.90
30300;DHT22;17110;52.602;12.998;2023-07-30T02:35:43;15.10;99.90
30300;DHT22;17110;52.602;12.998;2023-07-30T02:38:08;15.10;99.90
30300;DHT22;17110;52.602;12.998;2023-07-30T02:40:34;15.10;99.90
30300;DHT22;17110;52.602;12.998;2023-07-30T02:43:00;15.10;99.90
30300;DHT22;17110;52.602;12.998;2023-07-30T02:45:26;15.00;99.90
30300;DHT22;17110;52.602;12.998;2023-07-30T02:47:53;15.00;99.90
30300;DHT22;17110;52.602;12.998;2023-07-30T02:50:19;15.00;99.90
30300;DHT22;17110;52.602;12.998;2023-07-30T02:52:44;15.00;99.90
30300;DHT22;17110;52.602;12.998;2023-07-30T02:55:10;15.00;99.90
30300;DHT22;17110;52.602;12.998;2023-07-30T02:57:35;14.90;99.90
30300;DHT22;17110;52.602;12.998;2023-07-30T03:00:01;14.90;99.90
30300;DHT22;17110;52.602;12.998;2023-07-30T03:02:27;14.90;99.90
30300;DHT22;17110;52.602;12.998;2023-07-30T03:04:54;14.80;99.90
30300;DHT22;17110;52.602;12.998;2023-07-30T03:07:20;14.70;99.90
30300;DHT22;17110;52.602;12.998;2023-07-30T03:09:45;14.70;99.90
30300;DHT22;17110;52.602;12.998;2023-07-30T03:12:11;14.70;99.90
30300;DHT22;17110;52.602;12.998;2023-07-30T03:14:37;14.70;99.90
30300;DHT22;17110;52.602;12.998;2023-07-30T03:17:03;14.60;99.90
30300;DHT22;17110;52.602;12.998;2023-07-30T03:19:29;14.60;99.90
30300;DHT22;17110;52.602;12.998;2023-07-30T03:21:56;14.60;99.90
30300;DHT22;17110;52.602;12.998;2023-07-30T03:24:21;14.60;99.90
30300;DHT22;17110;52.602;12.998;2023-07-30T03:26:47;14.60;99.90
30300;DHT22;17110;52.602;12.998;2023-07-30T03:29:13;14.60;99.90
30300;DHT22;17110;52.602;12.998;2023-07-30T03:31:38;14.60;99.90
30300;DHT22;17110;52.602;12.998;2023-07-30T03:34:05;14.60;99.90
30300;DHT22;17110;52.602;12.998;2023-07-30T03:36:31;14.60;99.90
30300;DHT22;17110;52.602;12.998;2023-07-30T03:38:58;14.60;99.90
30300;DHT22;17110;52.602;12.998;2023-07-30T03:41:23;14.60;99.90
30300;DHT22;17110;52.602;12.998;2023-07-30T03:43:49;14.60;99.90
30300;DHT22;17110;52.602;12.998;2023-07-30T03:46:15;14.70;99.90
30300;DHT22;17110;52.602;12.998;2023-07-30T03:48:40;14.70;99.90
30300;DHT22;17110;52.602;12.998;2023-07-30T03:51:07;14.80;99.90
30300;DHT22;17110;52.602;12.998;2023-07-30T03:53:32;14.80;99.90
30300;DHT22;17110;52.602;12.998;2023-07-30T03:56:00;14.80;99.90
30300;DHT22;17110;52.602;12.998;2023-07-30T03:58:26;14.90;99.90
30300;DHT22;17110;52.602;12.998;2023-07-30T04:00:51;14.90;99.90
30300;DHT22;17110;52.602;12.998;2023-07-30T04:03:17;15.00;99.90
30300;DHT22;17110;52.602;12.998;2023-07-30T04:05:43;15.10;99.90
30300;DHT22;17110;52.602;12.998;2023-07-30T04:08:08;15.10;99.90
30300;DHT22;17110;52.602;12.998;2023-07-30T04:10:34;15.20;99.90
30300;DHT22;17110;52.602;12.998;2023-07-30T04:13:01;15.30;99.90
30300;DHT22;17110;52.602;12.998;2023-07-30T04:15:27;15.40;99.90
30300;DHT22;17110;52.602;12.998;2023-07-30T04:17:53;15.40;99.90
30300;DHT22;17110;52.602;12.998;2023-07-30T04:20:19;15.50;99.90
30300;DHT22;17110;52.602;12.998;2023-07-30T04:22:45;15.50;99.90
30300;DHT22;17110;52.602;12.998;2023-07-30T04:25:10;15.60;99.90
30300;DHT22;17110;52.602;12.998;2023-07-30T04:27:36;15.70;99.90
30300;DHT22;17110;52.602;12.998;2023-07-30T04:30:04;15.80;99.90
30300;DHT22;17110;52.602;12.998;2023-07-30T04:32:30;15.90;99.90
30300;DHT22;17110;52.602;12.998;2023-07-30T04:34:56;16.00;99.90
30300;DHT22;17110;52.602;12.998;2023-07-30T04:37:21;16.20;99.90
30300;DHT22;17110;52.602;12.998;2023-07-30T04:39:47;16.40;99.90
30300;DHT22;17110;52.602;12.998;2023-07-30T04:42:14;16.50;99.90
30300;DHT22;17110;52.602;12.998;2023-07-30T04:44:41;16.60;99.90
30300;DHT22;17110;52.602;12.998;2023-07-30T04:47:13;16.70;99.90
30300;DHT22;17110;52.602;12.998;2023-07-30T04:49:38;17.00;99.90
30300;DHT22;17110;52.602;12.998;2023-07-30T04:52:04;17.20;99.90
30300;DHT22;17110;52.602;12.998;2023-07-30T04:54:30;17.40;99.90
30300;DHT22;17110;52.602;12.998;2023-07-30T04:56:56;17.60;99.90
30300;DHT22;17110;52.602;12.998;2023-07-30T04:59:21;18.20;99.90
30300;DHT22;17110;52.602;12.998;2023-07-30T05:01:47;19.00;99.90
30300;DHT22;17110;52.602;12.998;2023-07-30T05:04:14;19.00;99.90
30300;DHT22;17110;52.602;12.998;2023-07-30T05:06:39;18.70;99.90
30300;DHT22;17110;52.602;12.998;2023-07-30T05:09:05;18.40;99.90
30300;DHT22;17110;52.602;12.998;2023-07-30T05:11:31;18.20;99.90
30300;DHT22;17110;52.602;12.998;2023-07-30T05:13:56;18.00;99.90
30300;DHT22;17110;52.602;12.998;2023-07-30T05:16:22;18.00;99.90
30300;DHT22;17110;52.602;12.998;2023-07-30T05:18:47;17.90;99.90
30300;DHT22;17110;52.602;12.998;2023-07-30T05:21:14;17.90;99.90
30300;DHT22;17110;52.602;12.998;2023-07-30T05:23:40;18.00;99.90
30300;DHT22;17110;52.602;12.998;2023-07-30T05:26:06;18.00;99.90
30300;DHT22;17110;52.602;12.998;2023-07-30T05:28:31;18.00;99.90
30300;DHT22;17110;52.602;12.998;2023-07-30T05:30:57;18.00;99.90
30300;DHT22;17110;52.602;12.998;2023-07-30T05:33:22;18.40;99.90
30300;DHT22;17110;52.602;12.998;2023-07-30T05:35:48;18.90;99.90
30300;DHT22;17110;52.602;12.998;2023-07-30T05:38:15;20.20;99.90
30300;DHT22;17110;52.602;12.998;2023-07-30T05:40:41;21.20;99.90
30300;DHT22;17110;52.602;12.998;2023-07-30T05:43:10;21.40;99.90
30300;DHT22;17110;52.602;12.998;2023-07-30T05:45:35;22.00;99.90
30300;DHT22;17110;52.602;12.998;2023-07-30T05:48:01;21.70;99.90
30300;DHT22;17110;52.602;12.998;2023-07-30T05:50:27;21.00;99.90
30300;DHT22;17110;52.602;12.998;2023-07-30T05:52:52;20.40;99.90
30300;DHT22;17110;52.602;12.998;2023-07-30T05:55:19;20.00;99.90
30300;DHT22;17110;52.602;12.998;2023-07-30T05:57:45;20.00;99.90
30300;DHT22;17110;52.602;12.998;2023-07-30T06:00:11;20.10;99.90
30300;DHT22;17110;52.602;12.998;2023-07-30T06:02:39;20.70;99.90
30300;DHT22;17110;52.602;12.998;2023-07-30T06:05:05;21.80;99.90
30300;DHT22;17110;52.602;12.998;2023-07-30T06:07:31;21.80;99.90
30300;DHT22;17110;52.602;12.998;2023-07-30T06:09:56;21.30;99.90
30300;DHT22;17110;52.602;12.998;2023-07-30T06:12:23;20.90;99.90
30300;DHT22;17110;52.602;12.998;2023-07-30T06:14:49;20.50;99.90
30300;DHT22;17110;52.602;12.998;2023-07-30T06:17:15;20.20;99.90
30300;DHT22;17110;52.602;12.998;2023-07-30T06:19:40;21.20;99.90
30300;DHT22;17110;52.602;12.998;2023-07-30T06:22:06;23.30;99.90
30300;DHT22;17110;52.602;12.998;2023-07-30T06:24:32;24.20;99.90
30300;DHT22;17110;52.602;12.998;2023-07-30T06:26:57;25.20;99.90
30300;DHT22;17110;52.602;12.998;2023-07-30T06:29:24;25.80;99.90
30300;DHT22;17110;52.602;12.998;2023-07-30T06:31:50;26.30;99.90
30300;DHT22;17110;52.602;12.998;2023-07-30T06:34:15;27.60;99.90
30300;DHT22;17110;52.602;12.998;2023-07-30T06:36:41;28.60;99.90
30300;DHT22;17110;52.602;12.998;2023-07-30T06:39:06;28.60;99.90
30300;DHT22;17110;52.602;12.998;2023-07-30T06:41:32;28.70;99.90
30300;DHT22;17110;52.602;12.998;2023-07-30T06:43:58;28.70;99.90
30300;DHT22;17110;52.602;12.998;2023-07-30T06:46:25;28.70;99.90
30300;DHT22;17110;52.602;12.998;2023-07-30T06:48:51;28.90;99.90
30300;DHT22;17110;52.602;12.998;2023-07-30T06:51:19;29.40;99.90
30300;DHT22;17110;52.602;12.998;2023-07-30T06:53:45;28.90;99.90
30300;DHT22;17110;52.602;12.998;2023-07-30T06:56:10;28.30;99.90
30300;DHT22;17110;52.602;12.998;2023-07-30T06:58:36;27.80;99.90
30300;DHT22;17110;52.602;12.998;2023-07-30T07:01:01;27.40;99.90
30300;DHT22;17110;52.602;12.998;2023-07-30T07:03:28;27.30;99.90
30300;DHT22;17110;52.602;12.998;2023-07-30T07:05:54;27.50;99.90
30300;DHT22;17110;52.602;12.998;2023-07-30T07:08:20;27.90;99.90
30300;DHT22;17110;52.602;12.998;2023-07-30T07:10:45;27.00;99.90
30300;DHT22;17110;52.602;12.998;2023-07-30T07:13:11;27.10;99.90
30300;DHT22;17110;52.602;12.998;2023-07-30T07:15:36;27.00;99.90
30300;DHT22;17110;52.602;12.998;2023-07-30T07:18:02;27.30;99.90
30300;DHT22;17110;52.602;12.998;2023-07-30T07:20:29;27.60;99.90
30300;DHT22;17110;52.602;12.998;2023-07-30T07:22:55;27.70;99.90
30300;DHT22;17110;52.602;12.998;2023-07-30T07:25:20;26.70;99.90
30300;DHT22;17110;52.602;12.998;2023-07-30T07:27:46;26.80;99.90
30300;DHT22;17110;52.602;12.998;2023-07-30T07:30:12;26.70;99.90
30300;DHT22;17110;52.602;12.998;2023-07-30T07:32:37;26.40;99.90
30300;DHT22;17110;52.602;12.998;2023-07-30T07:35:03;25.50;99.90
30300;DHT22;17110;52.602;12.998;2023-07-30T07:37:31;24.70;99.90
30300;DHT22;17110;52.602;12.998;2023-07-30T07:39:57;24.20;99.90
30300;DHT22;17110;52.602;12.998;2023-07-30T07:42:23;24.20;99.90
30300;DHT22;17110;52.602;12.998;2023-07-30T07:44:49;24.20;99.90
30300;DHT22;17110;52.602;12.998;2023-07-30T07:47:15;24.10;99.90
30300;DHT22;17110;52.602;12.998;2023-07-30T07:49:40;23.80;99.90
30300;DHT22;17110;52.602;12.998;2023-07-30T07:52:25;23.80;99.90
30300;DHT22;17110;52.602;12.998;2023-07-30T07:54:51;23.50;99.90
30300;DHT22;17110;52.602;12.998;2023-07-30T07:57:16;23.30;99.90
30300;DHT22;17110;52.602;12.998;2023-07-30T07:59:42;23.60;99.90
30300;DHT22;17110;52.602;12.998;2023-07-30T08:02:07;24.00;99.90
30300;DHT22;17110;52.602;12.998;2023-07-30T08:04:33;23.20;99.90
30300;DHT22;17110;52.602;12.998;2023-07-30T08:06:59;23.00;99.90
30300;DHT22;17110;52.602;12.998;2023-07-30T08:09:26;22.70;99.90
30300;DHT22;17110;52.602;12.998;2023-07-30T08:11:51;23.00;99.90
30300;DHT22;17110;52.602;12.998;2023-07-30T08:14:17;23.40;99.90
30300;DHT22;17110;52.602;12.998;2023-07-30T08:16:42;23.50;99.90
30300;DHT22;17110;52.602;12.998;2023-07-30T08:19:08;23.60;99.90
30300;DHT22;17110;52.602;12.998;2023-07-30T08:21:34;23.90;99.90
30300;DHT22;17110;52.602;12.998;2023-07-30T08:23:59;24.20;99.90
30300;DHT22;17110;52.602;12.998;2023-07-30T08:26:26;24.60;99.90
30300;DHT22;17110;52.602;12.998;2023-07-30T08:28:52;24.30;99.90
30300;DHT22;17110;52.602;12.998;2023-07-30T08:31:17;24.40;99.90
30300;DHT22;17110;52.602;12.998;2023-07-30T08:33:43;24.80;99.90
30300;DHT22;17110;52.602;12.998;2023-07-30T08:36:12;25.00;99.90
30300;DHT22;17110;52.602;12.998;2023-07-30T08:38:37;25.00;99.90
30300;DHT22;17110;52.602;12.998;2023-07-30T08:41:03;25.00;99.90
30300;DHT22;17110;52.602;12.998;2023-07-30T08:43:30;25.30;99.90
30300;DHT22;17110;52.602;12.998;2023-07-30T08:45:56;25.30;99.90
30300;DHT22;17110;52.602;12.998;2023-07-30T08:48:21;25.10;99.90
30300;DHT22;17110;52.602;12.998;2023-07-30T08:50:48;25.10;99.90
30300;DHT22;17110;52.602;12.998;2023-07-30T08:53:15;25.00;99.90
30300;DHT22;17110;52.602;12.998;2023-07-30T08:55:40;24.10;99.90
30300;DHT22;17110;52.602;12.998;2023-07-30T08:58:07;24.10;99.90
30300;DHT22;17110;52.602;12.998;2023-07-30T09:00:36;24.10;99.90
30300;DHT22;17110;52.602;12.998;2023-07-30T09:03:04;24.30;99.90
30300;DHT22;17110;52.602;12.998;2023-07-30T09:05:30;24.20;99.90
30300;DHT22;17110;52.602;12.998;2023-07-30T09:07:56;24.40;99.90
30300;DHT22;17110;52.602;12.998;2023-07-30T09:10:23;24.10;99.90
30300;DHT22;17110;52.602;12.998;2023-07-30T09:12:52;23.80;99.90
30300;DHT22;17110;52.602;12.998;2023-07-30T09:15:18;23.50;99.90
30300;DHT22;17110;52.602;12.998;2023-07-30T09:17:45;23.40;99.90
30300;DHT22;17110;52.602;12.998;2023-07-30T09:20:11;23.70;99.90
30300;DHT22;17110;52.602;12.998;2023-07-30T09:22:37;24.20;99.90
30300;DHT22;17110;52.602;12.998;2023-07-30T09:25:03;24.60;99.90
30300;DHT22;17110;52.602;12.998;2023-07-30T09:27:31;24.40;99.90
30300;DHT22;17110;52.602;12.998;2023-07-30T09:29:58;24.10;99.90
30300;DHT22;17110;52.602;12.998;2023-07-30T09:32:26;24.00;99.90
30300;DHT22;17110;52.602;12.998;2023-07-30T09:34:53;24.10;99.90
30300;DHT22;17110;52.602;12.998;2023-07-30T09:37:19;24.10;99.90
30300;DHT22;17110;52.602;12.998;2023-07-30T09:39:47;24.00;99.90
30300;DHT22;17110;52.602;12.998;2023-07-30T09:42:13;23.80;99.90
30300;DHT22;17110;52.602;12.998;2023-07-30T09:44:39;23.90;99.90
30300;DHT22;17110;52.602;12.998;2023-07-30T09:47:05;24.40;99.90
30300;DHT22;17110;52.602;12.998;2023-07-30T09:49:34;24.90;99.90
30300;DHT22;17110;52.602;12.998;2023-07-30T09:52:01;24.70;99.90
30300;DHT22;17110;52.602;12.998;2023-07-30T09:54:28;24.60;99.90
30300;DHT22;17110;52.602;12.998;2023-07-30T09:56:54;24.80;99.90
30300;DHT22;17110;52.602;12.998;2023-07-30T09:59:20;25.20;99.90
30300;DHT22;17110;52.602;12.998;2023-07-30T10:01:47;25.80;99.90
30300;DHT22;17110;52.602;12.998;2023-07-30T10:04:13;26.20;99.90
30300;DHT22;17110;52.602;12.998;2023-07-30T10:06:42;26.30;99.90
30300;DHT22;17110;52.602;12.998;2023-07-30T10:09:10;25.90;99.90
30300;DHT22;17110;52.602;12.998;2023-07-30T10:11:37;25.60;99.90
30300;DHT22;17110;52.602;12.998;2023-07-30T10:14:04;25.20;99.90
30300;DHT22;17110;52.602;12.998;2023-07-30T10:16:30;24.80;99.90
30300;DHT22;17110;52.602;12.998;2023-07-30T10:18:56;24.60;99.90
30300;DHT22;17110;52.602;12.998;2023-07-30T10:21:23;24.80;99.90
30300;DHT22;17110;52.602;12.998;2023-07-30T10:23:58;25.30;99.90
30300;DHT22;17110;52.602;12.998;2023-07-30T10:26:28;25.30;99.90
30300;DHT22;17110;52.602;12.998;2023-07-30T10:29:09;24.90;99.90
30300;DHT22;17110;52.602;12.998;2023-07-30T10:31:38;25.00;99.90
30300;DHT22;17110;52.602;12.998;2023-07-30T10:34:07;25.20;99.90
30300;DHT22;17110;52.602;12.998;2023-07-30T10:36:40;25.50;99.90
30300;DHT22;17110;52.602;12.998;2023-07-30T10:39:13;25.80;99.90
30300;DHT22;17110;52.602;12.998;2023-07-30T10:41:42;25.80;99.90
30300;DHT22;17110;52.602;12.998;2023-07-30T10:44:17;25.80;99.90
30300;DHT22;17110;52.602;12.998;2023-07-30T10:46:43;26.10;99.90
30300;DHT22;17110;52.602;12.998;2023-07-30T10:49:09;26.30;99.90
30300;DHT22;17110;52.602;12.998;2023-07-30T10:51:35;26.30;99.90
30300;DHT22;17110;52.602;12.998;2023-07-30T10:54:01;26.50;99.90
30300;DHT22;17110;52.602;12.998;2023-07-30T10:56:31;26.50;99.90
30300;DHT22;17110;52.602;12.998;2023-07-30T10:58:59;26.40;99.90
30300;DHT22;17110;52.602;12.998;2023-07-30T11:01:25;26.50;99.90
30300;DHT22;17110;52.602;12.998;2023-07-30T11:03:51;26.30;99.90
30300;DHT22;17110;52.602;12.998;2023-07-30T11:06:21;26.30;99.90
30300;DHT22;17110;52.602;12.998;2023-07-30T11:08:47;25.70;99.90
30300;DHT22;17110;52.602;12.998;2023-07-30T11:11:12;25.50;99.90
30300;DHT22;17110;52.602;12.998;2023-07-30T11:13:40;25.60;99.90
30300;DHT22;17110;52.602;12.998;2023-07-30T11:16:08;26.00;99.90
30300;DHT22;17110;52.602;12.998;2023-07-30T11:18:34;26.50;99.90
30300;DHT22;17110;52.602;12.998;2023-07-30T11:21:03;26.70;99.90
30300;DHT22;17110;52.602;12.998;2023-07-30T11:23:29;26.70;99.90
30300;DHT22;17110;52.602;12.998;2023-07-30T11:25:54;26.60;99.90
30300;DHT22;17110;52.602;12.998;2023-07-30T11:28:30;26.60;99.90
30300;DHT22;17110;52.602;12.998;2023-07-30T11:30:58;26.60;99.90
30300;DHT22;17110;52.602;12.998;2023-07-30T11:33:25;26.10;99.90
30300;DHT22;17110;52.602;12.998;2023-07-30T11:35:52;25.50;99.90
30300;DHT22;17110;52.602;12.998;2023-07-30T11:38:18;25.10;99.90
30300;DHT22;17110;52.602;12.998;2023-07-30T11:40:44;25.00;99.90
30300;DHT22;17110;52.602;12.998;2023-07-30T11:43:10;25.10;99.90
30300;DHT22;17110;52.602;12.998;2023-07-30T11:45:36;25.50;99.90
30300;DHT22;17110;52.602;12.998;2023-07-30T11:48:09;25.90;99.90
30300;DHT22;17110;52.602;12.998;2023-07-30T11:50:49;26.20;99.90
30300;DHT22;17110;52.602;12.998;2023-07-30T11:53:15;26.60;99.90
30300;DHT22;17110;52.602;12.998;2023-07-30T11:55:42;26.70;99.90
30300;DHT22;17110;52.602;12.998;2023-07-30T11:58:09;26.90;99.90
30300;DHT22;17110;52.602;12.998;2023-07-30T12:00:35;27.10;99.90
30300;DHT22;17110;52.602;12.998;2023-07-30T12:03:03;27.20;99.90
30300;DHT22;17110;52.602;12.998;2023-07-30T12:05:32;27.00;99.90
30300;DHT22;17110;52.602;12.998;2023-07-30T12:07:59;27.00;99.90
30300;DHT22;17110;52.602;12.998;2023-07-30T12:10:25;26.80;99.90
30300;DHT22;17110;52.602;12.998;2023-07-30T12:12:51;26.30;99.90
30300;DHT22;17110;52.602;12.998;2023-07-30T12:15:17;25.90;99.90
30300;DHT22;17110;52.602;12.998;2023-07-30T12:17:43;25.80;99.90
30300;DHT22;17110;52.602;12.998;2023-07-30T12:20:10;25.60;99.90
30300;DHT22;17110;52.602;12.998;2023-07-30T12:22:39;25.00;99.90
30300;DHT22;17110;52.602;12.998;2023-07-30T12:25:07;25.40;99.90
30300;DHT22;17110;52.602;12.998;2023-07-30T12:27:33;25.70;99.90
30300;DHT22;17110;52.602;12.998;2023-07-30T12:29:58;25.60;99.90
30300;DHT22;17110;52.602;12.998;2023-07-30T12:32:24;25.80;99.90
30300;DHT22;17110;52.602;12.998;2023-07-30T12:34:50;25.70;99.90
30300;DHT22;17110;52.602;12.998;2023-07-30T12:37:15;25.40;99.90
30300;DHT22;17110;52.602;12.998;2023-07-30T12:39:41;25.20;99.90
30300;DHT22;17110;52.602;12.998;2023-07-30T12:42:08;24.50;99.90
30300;DHT22;17110;52.602;12.998;2023-07-30T12:44:33;24.60;99.90
30300;DHT22;17110;52.602;12.998;2023-07-30T12:46:59;24.80;99.90
30300;DHT22;17110;52.602;12.998;2023-07-30T12:49:25;25.00;99.90
30300;DHT22;17110;52.602;12.998;2023-07-30T12:51:50;25.20;99.90
30300;DHT22;17110;52.602;12.998;2023-07-30T12:54:16;25.40;99.90
30300;DHT22;17110;52.602;12.998;2023-07-30T12:56:42;25.60;99.90
30300;DHT22;17110;52.602;12.998;2023-07-30T12:59:09;25.60;99.90
30300;DHT22;17110;52.602;12.998;2023-07-30T13:01:34;25.60;99.90
30300;DHT22;17110;52.602;12.998;2023-07-30T13:04:00;25.70;99.90
30300;DHT22;17110;52.602;12.998;2023-07-30T13:06:26;25.60;99.90
30300;DHT22;17110;52.602;12.998;2023-07-30T13:08:51;25.50;99.90
30300;DHT22;17110;52.602;12.998;2023-07-30T13:11:17;25.40;99.20
30300;DHT22;17110;52.602;12.998;2023-07-30T13:13:42;25.30;99.90
30300;DHT22;17110;52.602;12.998;2023-07-30T13:16:09;25.20;99.90
30300;DHT22;17110;52.602;12.998;2023-07-30T13:18:35;25.00;99.90
30300;DHT22;17110;52.602;12.998;2023-07-30T13:21:01;24.90;99.70
30300;DHT22;17110;52.602;12.998;2023-07-30T13:23:26;24.90;99.90
30300;DHT22;17110;52.602;12.998;2023-07-30T13:25:52;24.90;99.90
30300;DHT22;17110;52.602;12.998;2023-07-30T13:28:17;24.90;99.80
30300;DHT22;17110;52.602;12.998;2023-07-30T13:30:43;24.90;99.90
30300;DHT22;17110;52.602;12.998;2023-07-30T13:33:10;25.00;99.90
30300;DHT22;17110;52.602;12.998;2023-07-30T13:35:36;25.10;99.90
30300;DHT22;17110;52.602;12.998;2023-07-30T13:38:01;25.20;99.90
30300;DHT22;17110;52.602;12.998;2023-07-30T13:40:27;25.20;99.90
30300;DHT22;17110;52.602;12.998;2023-07-30T13:42:53;25.20;99.90
30300;DHT22;17110;52.602;12.998;2023-07-30T13:45:18;25.10;99.10
30300;DHT22;17110;52.602;12.998;2023-07-30T13:47:44;25.00;99.20
30300;DHT22;17110;52.602;12.998;2023-07-30T13:50:11;24.90;99.90
30300;DHT22;17110;52.602;12.998;2023-07-30T13:52:37;24.90;99.90
30300;DHT22;17110;52.602;12.998;2023-07-30T13:55:03;24.80;99.90
30300;DHT22;17110;52.602;12.998;2023-07-30T13:57:29;24.70;99.90
30300;DHT22;17110;52.602;12.998;2023-07-30T13:59:54;24.60;99.90
30300;DHT22;17110;52.602;12.998;2023-07-30T14:02:20;24.30;99.90
30300;DHT22;17110;52.602;12.998;2023-07-30T14:04:46;24.00;99.90
30300;DHT22;17110;52.602;12.998;2023-07-30T14:07:13;24.00;99.90
30300;DHT22;17110;52.602;12.998;2023-07-30T14:09:39;24.00;99.90
30300;DHT22;17110;52.602;12.998;2023-07-30T14:12:08;23.90;99.90
30300;DHT22;17110;52.602;12.998;2023-07-30T14:14:44;23.80;99.90
30300;DHT22;17110;52.602;12.998;2023-07-30T14:17:16;23.50;99.90
30300;DHT22;17110;52.602;12.998;2023-07-30T14:19:46;23.50;99.90
30300;DHT22;17110;52.602;12.998;2023-07-30T14:22:13;23.50;99.90
30300;DHT22;17110;52.602;12.998;2023-07-30T14:25:10;23.50;99.90
30300;DHT22;17110;52.602;12.998;2023-07-30T14:27:40;23.20;99.90
30300;DHT22;17110;52.602;12.998;2023-07-30T14:30:11;22.80;99.90
30300;DHT22;17110;52.602;12.998;2023-07-30T14:32:40;22.60;99.90
30300;DHT22;17110;52.602;12.998;2023-07-30T14:35:15;22.40;99.90
30300;DHT22;17110;52.602;12.998;2023-07-30T14:37:46;22.20;99.90
30300;DHT22;17110;52.602;12.998;2023-07-30T14:40:12;22.10;99.90
30300;DHT22;17110;52.602;12.998;2023-07-30T14:42:37;22.00;99.90
30300;DHT22;17110;52.602;12.998;2023-07-30T14:45:04;21.80;99.90
30300;DHT22;17110;52.602;12.998;2023-07-30T14:47:29;21.60;99.90
30300;DHT22;17110;52.602;12.998;2023-07-30T14:49:55;21.50;99.90
30300;DHT22;17110;52.602;12.998;2023-07-30T14:52:21;21.40;99.90
30300;DHT22;17110;52.602;12.998;2023-07-30T14:54:48;21.40;99.90
30300;DHT22;17110;52.602;12.998;2023-07-30T14:57:14;21.40;99.90
30300;DHT22;17110;52.602;12.998;2023-07-30T14:59:39;21.40;99.90
30300;DHT22;17110;52.602;12.998;2023-07-30T15:02:06;21.50;99.90
30300;DHT22;17110;52.602;12.998;2023-07-30T15:04:31;21.60;99.90
30300;DHT22;17110;52.602;12.998;2023-07-30T15:06:57;21.60;99.90
30300;DHT22;17110;52.602;12.998;2023-07-30T15:09:23;21.60;99.90
30300;DHT22;17110;52.602;12.998;2023-07-30T15:11:50;21.80;99.90